createdAt,value
2022-11-28T00:01:45.228Z,21.30
2022-11-28T00:04:13.990Z,20.60
2022-11-28T00:06:46.353Z,23.40
2022-11-28T00:09:15.326Z,22.70
2022-11-28T00:11:45.850Z,23.20
2022-11-28T00:14:15.748Z,22.60
2022-11-28T00:16:44.590Z,22.30
2022-11-28T00:19:13.854Z,22.60
2022-11-28T00:21:43.084Z,24.00
2022-11-28T00:24:11.413Z,22.80
2022-11-28T00:26:42.439Z,25.10
2022-11-28T00:29:11.669Z,23.70
2022-11-28T00:31:44.522Z,23.60
2022-11-28T00:34:14.849Z,22.40
2022-11-28T00:36:46.199Z,21.20
2022-11-28T00:39:16.629Z,20.20
2022-11-28T00:41:45.184Z,19.70
2022-11-28T00:44:13.760Z,20.40
2022-11-28T00:46:42.822Z,25.40
2022-11-28T00:49:11.140Z,23.20
2022-11-28T00:51:39.963Z,22.90
2022-11-28T00:54:08.662Z,24.70
2022-11-28T00:56:40.082Z,23.70
2022-11-28T00:59:08.738Z,23.50
2022-11-28T01:01:40.600Z,24.70
2022-11-28T01:04:11.488Z,23.30
2022-11-28T01:06:43.565Z,24.00
2022-11-28T01:09:15.168Z,23.80
2022-11-28T01:11:45.165Z,23.40
2022-11-28T01:14:13.926Z,23.90
2022-11-28T01:16:42.296Z,22.70
2022-11-28T01:19:10.881Z,24.70
2022-11-28T01:21:39.326Z,25.30
2022-11-28T01:24:07.770Z,26.10
2022-11-28T01:26:38.977Z,23.60
2022-11-28T01:29:08.412Z,26.20
2022-11-28T01:31:37.236Z,24.70
2022-11-28T01:34:05.760Z,23.10
2022-11-28T01:36:34.329Z,25.60
2022-11-28T01:39:02.950Z,21.90
2022-11-28T01:41:31.252Z,22.90
2022-11-28T01:44:05.836Z,24.10
2022-11-28T01:46:35.598Z,21.30
2022-11-28T01:49:11.928Z,21.00
2022-11-28T01:51:46.379Z,21.20
2022-11-28T01:54:17.942Z,22.80
2022-11-28T01:57:08.465Z,23.80
2022-11-28T01:59:42.722Z,22.70
2022-11-28T02:02:18.659Z,22.80
2022-11-28T02:04:47.093Z,20.60
2022-11-28T02:07:15.473Z,22.10
2022-11-28T02:09:43.786Z,21.10
2022-11-28T02:12:42.939Z,21.30
2022-11-28T02:15:53.237Z,21.00
2022-11-28T02:18:33.981Z,21.90
2022-11-28T02:21:18.626Z,21.70
2022-11-28T02:24:06.381Z,22.00
2022-11-28T02:26:50.754Z,22.40
2022-11-28T02:30:02.318Z,20.80
2022-11-28T02:32:41.459Z,19.90
2022-11-28T02:35:21.899Z,20.80
2022-11-28T02:38:09.026Z,22.40
2022-11-28T02:40:46.261Z,24.20
2022-11-28T02:43:25.322Z,22.10
2022-11-28T02:45:58.050Z,25.60
2022-11-28T02:48:41.412Z,25.10
2022-11-28T02:51:24.959Z,24.20
2022-11-28T02:53:55.920Z,24.90
2022-11-28T02:58:54.059Z,20.40
2022-11-28T03:01:33.318Z,23.90
2022-11-28T03:04:18.613Z,23.00
2022-11-28T03:07:07.802Z,22.10
2022-11-28T03:10:01.205Z,21.90
2022-11-28T03:13:00.283Z,21.00
2022-11-28T03:15:55.985Z,21.40
2022-11-28T03:18:32.229Z,23.30
2022-11-28T03:21:33.490Z,23.70
2022-11-28T03:24:12.997Z,20.80
2022-11-28T03:26:58.818Z,22.00
2022-11-28T03:29:37.631Z,21.40
2022-11-28T03:32:21.825Z,21.30
2022-11-28T03:34:58.091Z,21.70
2022-11-28T03:37:36.238Z,21.60
2022-11-28T03:40:11.281Z,21.90
2022-11-28T03:42:49.589Z,23.00
2022-11-28T03:45:21.253Z,21.80
2022-11-28T03:47:57.074Z,22.30
2022-11-28T03:50:57.504Z,21.50
2022-11-28T03:53:41.485Z,21.00
2022-11-28T03:56:15.884Z,18.90
2022-11-28T03:58:52.183Z,20.60
2022-11-28T04:01:29.600Z,20.60
2022-11-28T04:04:03.897Z,20.90
2022-11-28T04:06:48.755Z,17.20
2022-11-28T04:09:23.930Z,20.20
2022-11-28T04:12:00.090Z,20.00
2022-11-28T04:14:37.689Z,21.30
2022-11-28T04:17:18.110Z,19.60
2022-11-28T04:19:59.635Z,17.40
2022-11-28T04:22:33.051Z,18.30
2022-11-28T04:25:06.873Z,21.30
2022-11-28T04:27:44.331Z,21.20
2022-11-28T04:30:13.491Z,20.20
2022-11-28T04:32:52.005Z,21.30
2022-11-28T04:35:29.571Z,22.30
2022-11-28T04:38:00.523Z,23.30
2022-11-28T04:43:06.861Z,19.20
2022-11-28T04:45:43.715Z,20.80
2022-11-28T04:48:12.795Z,21.70
2022-11-28T04:50:49.697Z,24.10
2022-11-28T04:53:32.961Z,21.60
2022-11-28T04:56:12.140Z,23.90
2022-11-28T04:58:50.011Z,26.60
2022-11-28T05:01:25.278Z,26.50
2022-11-28T05:03:55.312Z,26.40
2022-11-28T05:06:29.781Z,25.70
2022-11-28T05:08:58.162Z,27.00
2022-11-28T05:11:27.269Z,25.40
2022-11-28T05:13:56.483Z,23.50
2022-11-28T05:16:24.846Z,26.60
2022-11-28T05:18:53.203Z,25.60
2022-11-28T05:21:21.479Z,26.20
2022-11-28T05:23:49.776Z,28.10
2022-11-28T05:26:21.160Z,25.50
2022-11-28T05:28:51.342Z,26.60
2022-11-28T05:31:21.674Z,29.00
2022-11-28T05:33:50.226Z,26.50
2022-11-28T05:36:18.860Z,28.70
2022-11-28T05:38:48.212Z,26.30
2022-11-28T05:41:28.091Z,27.10
2022-11-28T05:43:58.317Z,26.50
2022-11-28T05:46:27.277Z,28.00
2022-11-28T05:48:56.512Z,27.00
2022-11-28T05:51:25.013Z,28.40
2022-11-28T05:53:53.371Z,29.00
2022-11-28T05:56:24.728Z,30.30
2022-11-28T05:58:54.270Z,32.00
2022-11-28T06:01:26.142Z,32.60
2022-11-28T06:04:00.065Z,30.00
2022-11-28T06:06:33.462Z,32.80
2022-11-28T06:09:02.273Z,32.60
2022-11-28T06:11:32.239Z,33.00
2022-11-28T06:14:01.311Z,28.70
2022-11-28T06:16:31.053Z,33.30
2022-11-28T06:19:02.460Z,28.80
2022-11-28T06:21:32.025Z,29.50
2022-11-28T06:24:00.770Z,31.20
2022-11-28T06:26:29.670Z,28.40
2022-11-28T06:28:58.397Z,29.50
2022-11-28T06:31:30.324Z,31.20
2022-11-28T06:33:59.393Z,26.80
2022-11-28T06:36:28.047Z,26.30
2022-11-28T06:38:56.473Z,27.00
2022-11-28T06:41:24.780Z,29.20
2022-11-28T06:43:53.146Z,28.40
2022-11-28T06:46:22.845Z,26.90
2022-11-28T06:48:53.270Z,26.30
2022-11-28T06:51:21.959Z,28.00
2022-11-28T06:53:50.733Z,26.40
2022-11-28T06:56:20.571Z,24.60
2022-11-28T06:58:56.208Z,28.60
2022-11-28T07:01:27.315Z,27.80
2022-11-28T07:03:56.105Z,28.00
2022-11-28T07:06:26.883Z,28.40
2022-11-28T07:08:59.410Z,27.10
2022-11-28T07:11:30.353Z,28.90
2022-11-28T07:16:30.441Z,26.90
2022-11-28T07:19:00.149Z,25.70
2022-11-28T07:21:29.436Z,23.80
2022-11-28T07:23:59.198Z,26.80
2022-11-28T07:26:27.687Z,31.70
2022-11-28T07:28:58.476Z,26.40
2022-11-28T07:31:31.949Z,30.20
2022-11-28T07:34:03.771Z,26.90
2022-11-28T07:36:32.720Z,31.70
2022-11-28T07:39:03.381Z,28.50
2022-11-28T07:41:31.960Z,28.20
2022-11-28T07:44:02.672Z,28.80
2022-11-28T07:46:32.701Z,27.40
2022-11-28T07:49:02.126Z,27.50
2022-11-28T07:51:33.121Z,30.70
2022-11-28T07:59:22.648Z,28.00
2022-11-28T08:01:50.965Z,27.00
2022-11-28T08:04:19.493Z,27.70
2022-11-28T08:06:47.836Z,29.10
2022-11-28T08:09:16.149Z,26.20
2022-11-28T08:11:44.431Z,27.80
2022-11-28T08:14:12.716Z,26.40
2022-11-28T08:16:45.224Z,28.70
2022-11-28T08:19:14.274Z,26.90
2022-11-28T08:21:43.114Z,27.20
2022-11-28T08:24:11.971Z,27.60
2022-11-28T08:26:40.253Z,28.30
2022-11-28T08:29:09.866Z,26.10
2022-11-28T08:31:40.082Z,26.00
2022-11-28T08:34:10.965Z,26.00
2022-11-28T08:39:24.842Z,23.90
2022-11-28T08:41:59.905Z,26.40
2022-11-28T08:44:30.297Z,18.40
2022-11-28T08:46:59.219Z,22.10
2022-11-28T08:49:27.469Z,23.20
2022-11-28T08:51:55.800Z,22.30
2022-11-28T08:54:24.147Z,23.00
2022-11-28T08:56:52.554Z,22.90
2022-11-28T08:59:21.191Z,20.30
2022-11-28T09:01:49.563Z,24.40
2022-11-28T09:04:17.893Z,23.60
2022-11-28T09:06:46.188Z,21.70
2022-11-28T09:09:14.518Z,20.20
2022-11-28T09:11:43.134Z,19.50
2022-11-28T09:14:11.768Z,17.70
2022-11-28T09:16:40.956Z,19.20
2022-11-28T09:19:10.877Z,19.80
2022-11-28T09:21:40.086Z,18.80
2022-11-28T09:24:09.521Z,16.90
2022-11-28T09:26:37.792Z,15.10
2022-11-28T09:29:06.050Z,14.30
2022-11-28T09:31:34.501Z,13.10
2022-11-28T09:34:04.226Z,13.30
2022-11-28T09:36:33.160Z,9.90
2022-11-28T09:39:01.630Z,10.90
2022-11-28T09:41:44.607Z,9.10
2022-11-28T09:44:45.689Z,10.60
2022-11-28T09:47:32.280Z,10.00
2022-11-28T09:50:11.748Z,9.50
2022-11-28T09:52:40.049Z,10.00
2022-11-28T09:55:32.272Z,9.20
2022-11-28T09:58:06.223Z,8.70
2022-11-28T10:00:55.703Z,9.10
2022-11-28T10:03:37.098Z,8.70
2022-11-28T10:06:26.268Z,9.20
2022-11-28T10:08:54.594Z,9.90
2022-11-28T10:11:48.135Z,9.10
2022-11-28T10:14:24.926Z,10.20
2022-11-28T10:17:12.657Z,9.20
2022-11-28T10:19:55.456Z,8.70
2022-11-28T10:22:42.868Z,9.40
2022-11-28T10:25:18.315Z,9.10
2022-11-28T10:27:48.206Z,9.80
2022-11-28T10:30:26.185Z,9.00
2022-11-28T10:33:23.151Z,9.40
2022-11-28T10:36:00.085Z,9.50
2022-11-28T10:38:31.828Z,9.50
2022-11-28T10:41:05.840Z,9.90
2022-11-28T10:44:17.033Z,9.60
2022-11-28T10:46:56.644Z,8.70
2022-11-28T10:50:02.458Z,8.40
2022-11-28T10:52:47.523Z,8.90
2022-11-28T10:55:31.046Z,8.80
2022-11-28T10:58:05.520Z,9.80
2022-11-28T11:00:35.622Z,9.50
2022-11-28T11:03:06.176Z,9.60
2022-11-28T11:05:37.139Z,7.80
2022-11-28T11:08:22.647Z,9.20
2022-11-28T11:11:06.382Z,7.90
2022-11-28T11:13:53.912Z,8.90
2022-11-28T11:16:22.822Z,8.40
2022-11-28T11:18:54.555Z,9.00
2022-11-28T11:21:25.233Z,9.40
2022-11-28T11:24:17.359Z,8.80
2022-11-28T11:26:48.933Z,9.20
2022-11-28T11:29:45.070Z,8.90
2022-11-28T11:32:34.857Z,8.50
2022-11-28T11:35:03.256Z,9.70
2022-11-28T11:45:32.291Z,9.70
2022-11-28T11:48:02.358Z,10.10
2022-11-28T11:50:32.043Z,8.80
2022-11-28T11:53:10.970Z,10.40
2022-11-28T11:55:53.033Z,8.30
2022-11-28T11:58:33.623Z,9.90
2022-11-28T12:01:02.712Z,8.90
2022-11-28T12:03:42.453Z,9.80
2022-11-28T12:06:16.167Z,9.30
2022-11-28T12:08:54.969Z,8.40
2022-11-28T12:11:47.826Z,8.60
2022-11-28T12:14:39.771Z,8.80
2022-11-28T12:17:40.464Z,10.00
2022-11-28T12:20:20.573Z,7.80
2022-11-28T12:23:17.347Z,8.60
2022-11-28T12:26:15.475Z,10.10
2022-11-28T12:29:01.971Z,8.90
2022-11-28T12:32:00.584Z,8.60
2022-11-28T12:34:59.114Z,8.50
2022-11-28T12:40:46.336Z,8.80
2022-11-28T12:44:00.025Z,7.20
2022-11-28T12:47:00.998Z,7.80
2022-11-28T12:49:41.273Z,7.40
2022-11-28T12:52:22.798Z,9.10
2022-11-28T12:55:14.133Z,8.10
2022-11-28T12:57:48.471Z,8.80
2022-11-28T13:00:21.267Z,8.90
2022-11-28T13:02:49.590Z,9.20
2022-11-28T13:05:48.117Z,8.80
2022-11-28T13:08:43.324Z,8.80
2022-11-28T13:11:36.866Z,9.30
2022-11-28T13:14:29.012Z,8.80
2022-11-28T13:17:12.850Z,7.40
2022-11-28T13:20:03.465Z,8.70
2022-11-28T13:22:50.153Z,7.00
2022-11-28T13:25:33.855Z,8.50
2022-11-28T13:28:34.084Z,9.10
2022-11-28T13:31:21.681Z,8.50
2022-11-28T13:33:55.575Z,8.90
2022-11-28T13:39:47.313Z,9.30
2022-11-28T13:43:03.309Z,8.90
2022-11-28T13:45:39.286Z,8.00
2022-11-28T13:51:31.600Z,9.90
2022-11-28T13:54:34.071Z,8.80
2022-11-28T13:57:08.522Z,7.50
2022-11-28T13:59:38.253Z,9.00
2022-11-28T14:02:30.369Z,9.90
2022-11-28T14:04:59.069Z,8.20
2022-11-28T14:07:31.946Z,9.10
2022-11-28T14:10:24.554Z,9.50
2022-11-28T14:13:32.095Z,9.20
2022-11-28T14:16:11.575Z,9.40
2022-11-28T14:19:03.776Z,8.30
2022-11-28T14:21:47.259Z,7.50
2022-11-28T14:24:38.071Z,8.20
2022-11-28T14:27:07.460Z,8.00
2022-11-28T14:29:42.090Z,7.10
2022-11-28T14:32:31.502Z,7.00
2022-11-28T14:35:02.292Z,7.80
2022-11-28T14:37:34.964Z,7.60
2022-11-28T14:40:23.992Z,7.40
2022-11-28T14:43:32.584Z,7.90
2022-11-28T14:46:33.465Z,7.00
2022-11-28T14:49:02.846Z,7.00
2022-11-28T14:52:15.876Z,6.60
2022-11-28T14:54:44.396Z,6.10
2022-11-28T14:57:20.310Z,7.00
2022-11-28T14:59:51.618Z,7.30
2022-11-28T15:02:36.456Z,7.50
2022-11-28T15:05:31.745Z,7.30
2022-11-28T15:08:18.926Z,7.00
2022-11-28T15:11:20.499Z,6.30
2022-11-28T15:14:04.835Z,7.10
2022-11-28T15:16:38.284Z,6.90
2022-11-28T15:19:39.423Z,6.70
2022-11-28T15:22:29.485Z,7.40
2022-11-28T15:24:59.586Z,7.40
2022-11-28T15:27:28.168Z,7.30
2022-11-28T15:34:35.066Z,8.10
2022-11-28T15:37:16.967Z,7.90
2022-11-28T15:42:26.288Z,6.40
2022-11-28T15:45:08.912Z,6.60
2022-11-28T15:47:38.802Z,9.10
2022-11-28T15:50:10.464Z,8.00
2022-11-28T15:52:39.225Z,8.60
2022-11-28T15:55:17.748Z,7.80
2022-11-28T15:57:46.481Z,7.70
2022-11-28T16:00:20.285Z,7.90
2022-11-28T16:02:49.299Z,7.30
2022-11-28T16:05:23.650Z,7.60
2022-11-28T16:07:55.160Z,8.20
2022-11-28T16:10:37.262Z,7.90
2022-11-28T16:13:14.506Z,7.70
2022-11-28T16:15:50.038Z,7.00
2022-11-28T16:18:19.983Z,7.50
2022-11-28T16:20:48.820Z,7.10
2022-11-28T16:23:26.081Z,7.80
2022-11-28T16:26:08.495Z,8.50
2022-11-28T16:28:40.877Z,8.10
2022-11-28T16:31:13.836Z,7.40
2022-11-28T16:33:45.068Z,7.00
2022-11-28T16:36:16.154Z,7.30
2022-11-28T16:38:45.727Z,7.80
2022-11-28T16:41:20.472Z,8.30
2022-11-28T16:43:59.504Z,8.50
2022-11-28T16:46:36.772Z,8.40
2022-11-28T16:49:09.414Z,9.00
2022-11-28T16:51:41.771Z,8.50
2022-11-28T16:54:30.966Z,9.30
2022-11-28T16:57:14.892Z,9.60
2022-11-28T16:59:44.844Z,8.80
2022-11-28T17:02:25.079Z,10.20
2022-11-28T17:04:53.895Z,13.70
2022-11-28T17:07:24.276Z,9.80
2022-11-28T17:09:52.676Z,8.90
2022-11-28T17:12:39.829Z,8.80
2022-11-28T17:15:15.543Z,8.20
2022-11-28T17:17:43.932Z,8.80
2022-11-28T17:20:13.386Z,9.40
2022-11-28T17:22:47.806Z,9.50
2022-11-28T17:25:18.424Z,9.30
2022-11-28T17:27:50.722Z,9.70
2022-11-28T17:30:20.142Z,9.50
2022-11-28T17:32:48.770Z,17.00
2022-11-28T17:35:23.142Z,18.10
2022-11-28T17:37:52.173Z,14.90
2022-11-28T17:40:36.952Z,12.10
2022-11-28T17:43:20.248Z,10.90
2022-11-28T17:45:52.663Z,10.90
2022-11-28T17:48:21.120Z,10.60
2022-11-28T17:50:51.104Z,11.90
2022-11-28T17:53:23.685Z,12.30
2022-11-28T17:55:58.488Z,12.00
2022-11-28T17:58:27.610Z,11.80
2022-11-28T18:01:20.665Z,11.80
2022-11-28T18:03:53.060Z,11.60
2022-11-28T18:06:28.794Z,10.50
2022-11-28T18:09:04.901Z,11.70
2022-11-28T18:11:46.623Z,10.50
2022-11-28T18:14:19.201Z,10.70
2022-11-28T18:16:51.718Z,12.20
2022-11-28T18:19:30.500Z,12.60
2022-11-28T18:22:07.531Z,12.50
2022-11-28T18:24:48.522Z,12.70
2022-11-28T18:27:26.185Z,11.70
2022-11-28T18:30:01.661Z,11.50
2022-11-28T18:32:36.639Z,11.60
2022-11-28T18:35:07.681Z,10.60
2022-11-28T18:37:59.315Z,12.60
2022-11-28T18:40:39.146Z,11.70
2022-11-28T18:43:11.302Z,12.10
2022-11-28T18:45:39.688Z,13.00
2022-11-28T18:48:24.523Z,12.80
2022-11-28T18:50:52.977Z,11.80
2022-11-28T18:53:21.561Z,13.70
2022-11-28T18:56:00.211Z,12.20
2022-11-28T18:58:40.467Z,13.60
2022-11-28T19:01:17.226Z,13.70
2022-11-28T19:04:05.679Z,12.50
2022-11-28T19:06:47.381Z,13.00
2022-11-28T19:09:32.668Z,12.80
2022-11-28T19:12:09.718Z,12.90
2022-11-28T19:14:38.675Z,14.40
2022-11-28T19:17:12.588Z,13.60
2022-11-28T19:19:44.502Z,14.20
2022-11-28T19:22:13.290Z,14.60
2022-11-28T19:24:41.735Z,14.60
2022-11-28T19:27:14.325Z,15.20
2022-11-28T19:29:44.584Z,14.60
2022-11-28T19:32:13.871Z,13.30
2022-11-28T19:34:42.201Z,13.50
2022-11-28T19:37:10.599Z,13.60
2022-11-28T19:39:39.024Z,12.50
2022-11-28T19:42:07.354Z,12.40
2022-11-28T19:44:36.156Z,12.60
2022-11-28T19:47:06.958Z,11.60
2022-11-28T19:49:35.654Z,12.40
2022-11-28T19:52:04.395Z,13.70
2022-11-28T19:55:00.481Z,14.30
2022-11-28T19:57:29.233Z,11.70
2022-11-28T20:00:07.307Z,13.70
2022-11-28T20:03:01.975Z,13.00
2022-11-28T20:05:41.587Z,13.30
2022-11-28T20:08:10.457Z,13.00
2022-11-28T20:13:34.172Z,11.20
2022-11-28T20:16:07.356Z,11.60
2022-11-28T20:18:43.226Z,11.40
2022-11-28T20:21:17.938Z,12.30
2022-11-28T20:23:57.148Z,12.00
2022-11-28T20:26:36.551Z,11.30
2022-11-28T20:29:32.842Z,11.80
2022-11-28T20:32:01.750Z,11.80
2022-11-28T20:34:36.247Z,10.50
2022-11-28T20:37:17.252Z,12.40
2022-11-28T20:39:45.982Z,11.20
2022-11-28T20:42:46.476Z,11.90
2022-11-28T20:47:52.276Z,11.80
2022-11-28T20:50:20.640Z,10.90
2022-11-28T20:52:57.520Z,11.40
2022-11-28T20:55:31.451Z,10.70
2022-11-28T20:58:16.075Z,12.10
2022-11-28T21:00:49.708Z,12.10
2022-11-28T21:03:17.979Z,10.30
2022-11-28T21:05:46.243Z,10.90
2022-11-28T21:08:17.351Z,10.80
2022-11-28T21:10:45.659Z,10.40
2022-11-28T21:13:14.158Z,11.10
2022-11-28T21:15:45.843Z,10.90
2022-11-28T21:18:16.250Z,11.40
2022-11-28T21:20:46.771Z,11.90
2022-11-28T21:23:16.970Z,11.00
2022-11-28T21:25:45.310Z,11.00
2022-11-28T21:28:13.618Z,10.70
2022-11-28T21:30:54.329Z,11.50
2022-11-28T21:33:25.817Z,11.10
2022-11-28T21:36:01.265Z,10.60
2022-11-28T21:38:37.769Z,11.60
2022-11-28T21:41:06.139Z,10.60
2022-11-28T21:43:37.901Z,10.00
2022-11-28T21:46:11.482Z,10.40
2022-11-28T21:48:46.147Z,11.10
2022-11-28T21:51:30.587Z,10.30
2022-11-28T21:54:02.876Z,9.30
2022-11-28T21:56:38.008Z,10.30
2022-11-28T21:59:06.915Z,10.60
2022-11-28T22:01:50.196Z,9.90
2022-11-28T22:04:37.499Z,9.80
2022-11-28T22:07:06.738Z,9.40
2022-11-28T22:09:35.540Z,9.90
2022-11-28T22:12:04.066Z,9.50
2022-11-28T22:14:36.820Z,9.60
2022-11-28T22:17:05.598Z,10.30
2022-11-28T22:19:34.223Z,10.40
2022-11-28T22:22:02.568Z,10.40
2022-11-28T22:24:32.290Z,12.10
2022-11-28T22:27:00.645Z,10.20
2022-11-28T22:29:29.370Z,10.50
2022-11-28T22:31:57.790Z,11.70
2022-11-28T22:34:26.191Z,10.50
2022-11-28T22:36:54.674Z,9.90
2022-11-28T22:39:23.101Z,11.90
2022-11-28T22:41:51.718Z,10.90
2022-11-28T22:44:21.570Z,10.30
2022-11-28T22:46:50.318Z,10.00
2022-11-28T22:49:19.652Z,9.90
2022-11-28T22:51:48.394Z,9.40
2022-11-28T22:54:16.806Z,9.10
2022-11-28T22:56:45.137Z,9.80
2022-11-28T22:59:15.162Z,10.30
2022-11-28T23:01:44.004Z,9.50
2022-11-28T23:04:13.161Z,10.40
2022-11-28T23:06:41.560Z,11.20
2022-11-28T23:09:13.406Z,11.20
2022-11-28T23:11:42.465Z,11.40
2022-11-28T23:14:14.324Z,10.30
2022-11-28T23:16:45.274Z,10.20
2022-11-28T23:19:17.295Z,9.00
2022-11-28T23:21:49.074Z,10.10
2022-11-28T23:24:20.643Z,8.70
2022-11-28T23:26:51.428Z,9.80
2022-11-28T23:29:20.436Z,8.80
2022-11-28T23:31:50.465Z,8.80
2022-11-28T23:34:18.822Z,10.20
2022-11-28T23:36:48.921Z,10.30
2022-11-28T23:39:20.190Z,10.90
2022-11-28T23:41:49.662Z,10.80
2022-11-28T23:44:19.461Z,11.20
2022-11-28T23:46:48.464Z,11.80
2022-11-28T23:49:17.454Z,11.00
2022-11-28T23:51:45.650Z,11.00
2022-11-28T23:54:13.972Z,10.80
2022-11-28T23:56:42.883Z,10.70
2022-11-28T23:59:12.335Z,10.10
